Time;durP1;ratioP1;P1;durP2;ratioP2;P2;SDS_P1;SDS_P2;PMS_P1;PMS_P2;Temp;Humidity;BMP_temperature;BMP_pressure;BME280_temperature;BME280_humidity;BME280_pressure;Samples;Min_cycle;Max_cycle;Signal;HPM_P1;HPM_P2
2023/04/08 00:00:49;;;;;;;10.90;8.93;;;4.70;99.90;;;;;;5087642;27;20124;-73
2023/04/08 00:03:15;;;;;;;10.00;8.63;;;4.60;99.90;;;;;;5021338;28;20635;-73
2023/04/08 00:05:41;;;;;;;10.48;8.57;;;4.60;99.90;;;;;;5025219;28;20046;-73
2023/04/08 00:08:06;;;;;;;11.02;8.90;;;4.60;99.90;;;;;;5021616;28;20075;-73
2023/04/08 00:10:32;;;;;;;10.90;9.60;;;4.50;99.90;;;;;;5027847;28;20046;-73
2023/04/08 00:12:59;;;;;;;11.85;9.23;;;4.50;99.90;;;;;;5021831;28;20066;-73
2023/04/08 00:15:25;;;;;;;11.93;9.07;;;4.50;99.90;;;;;;5027581;28;20459;-74
2023/04/08 00:17:53;;;;;;;11.68;8.57;;;4.50;99.90;;;;;;5027001;28;20113;-74
2023/04/08 00:20:19;;;;;;;14.85;9.32;;;4.40;99.90;;;;;;5027286;28;20049;-74
2023/04/08 00:22:45;;;;;;;10.93;9.10;;;4.40;99.90;;;;;;5093919;28;20077;-73
2023/04/08 00:25:11;;;;;;;12.13;9.27;;;4.40;99.90;;;;;;5028459;28;20077;-73
2023/04/08 00:27:36;;;;;;;10.07;8.10;;;4.40;99.90;;;;;;5030512;28;20132;-74
2023/04/08 00:30:02;;;;;;;10.77;8.68;;;4.40;99.90;;;;;;5027794;28;20049;-73
2023/04/08 00:32:28;;;;;;;10.63;8.73;;;4.40;99.90;;;;;;5076184;28;20523;-73
2023/04/08 00:34:54;;;;;;;9.18;8.27;;;4.30;99.90;;;;;;5027236;27;20045;-73
2023/04/08 00:37:20;;;;;;;9.10;8.07;;;4.30;99.90;;;;;;5024624;28;20078;-73
2023/04/08 00:39:45;;;;;;;13.48;9.07;;;4.30;99.90;;;;;;5022340;28;20133;-74
2023/04/08 00:42:11;;;;;;;10.10;8.57;;;4.20;99.90;;;;;;5023339;28;20034;-74
2023/04/08 00:44:37;;;;;;;11.57;8.38;;;4.20;99.90;;;;;;5022894;28;20512;-73
2023/04/08 00:47:03;;;;;;;9.70;7.85;;;4.20;99.90;;;;;;5026230;28;20134;-73
2023/04/08 00:49:30;;;;;;;10.27;8.93;;;4.20;99.90;;;;;;5086505;27;20502;-73
2023/04/08 00:51:55;;;;;;;11.90;8.50;;;4.20;99.90;;;;;;5028812;28;20042;-74
2023/04/08 00:54:21;;;;;;;9.90;8.65;;;4.20;99.90;;;;;;5024703;28;20112;-73
2023/04/08 00:56:47;;;;;;;11.38;9.10;;;4.10;99.90;;;;;;5026641;28;20045;-73
2023/04/08 00:59:14;;;;;;;9.13;8.23;;;4.10;99.90;;;;;;5023174;27;20179;-73
2023/04/08 01:01:46;;;;;;;10.52;9.43;;;4.10;99.90;;;;;;5023754;27;20045;-73
2023/04/08 01:04:29;;;;;;;9.27;8.30;;;4.10;99.90;;;;;;5023463;28;20096;-73
2023/04/08 01:07:14;;;;;;;9.18;7.97;;;4.10;99.90;;;;;;5024131;28;20041;-73
2023/04/08 01:09:47;;;;;;;10.32;8.10;;;4.10;99.90;;;;;;5021147;28;20044;-73
2023/04/08 01:12:18;;;;;;;11.38;7.95;;;4.10;99.90;;;;;;5022177;28;20129;-73
2023/04/08 01:14:46;;;;;;;9.20;8.10;;;4.10;99.90;;;;;;5025123;28;20056;-73
2023/04/08 01:17:12;;;;;;;11.15;8.80;;;4.10;99.90;;;;;;5026463;28;20045;-73
2023/04/08 01:19:43;;;;;;;11.80;8.23;;;4.00;99.90;;;;;;5026283;28;20037;-73
2023/04/08 01:22:48;;;;;;;11.43;8.68;;;4.00;99.90;;;;;;5026541;28;20458;-73
2023/04/08 01:25:18;;;;;;;11.27;7.47;;;4.00;99.90;;;;;;5059774;28;20046;-73
2023/04/08 01:27:47;;;;;;;11.45;8.57;;;4.00;99.90;;;;;;5025979;28;20056;-73
2023/04/08 01:30:14;;;;;;;9.60;8.48;;;4.00;99.90;;;;;;5026242;28;20473;-73
2023/04/08 01:32:41;;;;;;;11.70;9.13;;;3.90;99.90;;;;;;5026022;28;20098;-73
2023/04/08 01:35:09;;;;;;;10.20;7.88;;;3.90;99.90;;;;;;5026495;28;20452;-72
2023/04/08 01:37:36;;;;;;;11.45;8.63;;;3.90;99.90;;;;;;5026224;27;20049;-72
2023/04/08 01:40:02;;;;;;;10.98;8.57;;;3.90;99.90;;;;;;5028113;28;20166;-73
2023/04/08 01:42:29;;;;;;;12.13;9.40;;;3.90;99.90;;;;;;5026154;28;20045;-73
2023/04/08 01:44:56;;;;;;;12.25;9.85;;;3.90;99.90;;;;;;5021243;28;20045;-73
2023/04/08 01:47:23;;;;;;;11.07;9.20;;;3.90;99.90;;;;;;5020543;27;20042;-73
2023/04/08 01:49:51;;;;;;;11.23;9.68;;;3.90;99.90;;;;;;5019807;28;21172;-73
2023/04/08 01:52:19;;;;;;;13.23;9.80;;;3.90;99.90;;;;;;5020270;28;20502;-73
2023/04/08 01:54:46;;;;;;;11.05;9.43;;;3.80;99.90;;;;;;5021491;28;20029;-73
2023/04/08 01:57:16;;;;;;;10.27;8.68;;;3.80;99.90;;;;;;5018969;28;20437;-72
2023/04/08 01:59:42;;;;;;;11.73;10.32;;;3.80;99.90;;;;;;5019896;28;20220;-73
2023/04/08 02:02:09;;;;;;;11.45;9.55;;;3.80;99.90;;;;;;5020346;28;20588;-73
2023/04/08 02:04:35;;;;;;;11.57;9.67;;;3.70;99.90;;;;;;5020782;28;20506;-72
2023/04/08 02:07:01;;;;;;;12.95;10.05;;;3.70;99.90;;;;;;5027656;28;20480;-72
2023/04/08 02:09:27;;;;;;;11.52;9.98;;;3.70;99.90;;;;;;5021180;28;20812;-72
2023/04/08 02:11:53;;;;;;;11.75;9.02;;;3.70;99.90;;;;;;5024771;28;20182;-72
2023/04/08 02:14:19;;;;;;;11.55;10.13;;;3.70;99.90;;;;;;5021614;28;20057;-72
2023/04/08 02:17:17;;;;;;;13.70;10.48;;;3.70;99.90;;;;;;5026583;28;20106;-72
2023/04/08 02:20:09;;;;;;;12.88;10.35;;;3.60;99.90;;;;;;5028397;28;20076;-73
2023/04/08 02:23:06;;;;;;;16.08;9.23;;;3.60;99.90;;;;;;5079078;28;20536;-74
2023/04/08 02:25:36;;;;;;;14.00;10.18;;;3.60;99.90;;;;;;5023398;28;20067;-73
2023/04/08 02:28:04;;;;;;;14.98;11.07;;;3.60;99.90;;;;;;5022501;28;20416;-73
2023/04/08 02:30:34;;;;;;;13.60;10.77;;;3.60;99.90;;;;;;5024779;28;20042;-73
2023/04/08 02:33:02;;;;;;;14.05;10.27;;;3.60;99.90;;;;;;5025737;28;20061;-74
2023/04/08 02:35:28;;;;;;;15.20;11.30;;;3.60;99.90;;;;;;5020544;28;20099;-73
2023/04/08 02:37:53;;;;;;;13.32;11.88;;;3.60;99.90;;;;;;5024902;28;20494;-73
2023/04/08 02:40:30;;;;;;;15.65;12.13;;;3.50;99.90;;;;;;5017760;28;20047;-73
2023/04/08 02:42:56;;;;;;;17.45;12.40;;;3.50;99.90;;;;;;5025134;28;20053;-73
2023/04/08 02:45:26;;;;;;;13.40;12.00;;;3.50;99.90;;;;;;5025666;28;20047;-73
2023/04/08 02:47:51;;;;;;;15.88;12.57;;;3.40;99.90;;;;;;5027071;28;20042;-73
2023/04/08 02:50:17;;;;;;;15.77;12.65;;;3.40;99.90;;;;;;5087712;28;20042;-73
2023/04/08 02:52:43;;;;;;;15.73;13.40;;;3.40;99.90;;;;;;5019587;28;20065;-73
2023/04/08 02:55:09;;;;;;;17.13;13.15;;;3.40;99.90;;;;;;5022192;28;20045;-73
2023/04/08 02:57:37;;;;;;;14.85;12.73;;;3.40;99.90;;;;;;5025371;28;20595;-73
2023/04/08 03:00:04;;;;;;;;;;;3.40;99.90;;;;;;5022755;28;20487;-73
2023/04/08 03:02:29;;;;;;;15.30;12.40;;;3.40;99.90;;;;;;5023294;28;19921;-73
2023/04/08 03:04:55;;;;;;;15.82;12.52;;;3.40;99.90;;;;;;5024396;28;20053;-73
2023/04/08 03:07:21;;;;;;;15.52;12.57;;;3.40;99.90;;;;;;5024030;28;20052;-73
2023/04/08 03:09:46;;;;;;;15.15;12.93;;;3.40;99.90;;;;;;5023824;28;20488;-73
2023/04/08 03:12:12;;;;;;;16.35;13.20;;;3.30;99.90;;;;;;5088985;27;20045;-73
2023/04/08 03:14:37;;;;;;;16.05;13.95;;;3.30;99.90;;;;;;5022883;28;22113;-73
2023/04/08 03:17:03;;;;;;;16.98;13.60;;;3.30;99.90;;;;;;5088394;28;20831;-73
2023/04/08 03:19:29;;;;;;;17.23;13.30;;;3.30;99.90;;;;;;5092629;28;20114;-73
2023/04/08 03:21:54;;;;;;;17.70;13.93;;;3.30;99.90;;;;;;5086157;27;20053;-73
2023/04/08 03:24:20;;;;;;;20.08;14.25;;;3.30;99.90;;;;;;5022973;28;20509;-73
2023/04/08 03:26:45;;;;;;;15.18;13.10;;;3.20;99.90;;;;;;5023445;28;20158;-73
2023/04/08 03:29:11;;;;;;;14.75;13.18;;;3.20;99.90;;;;;;5024492;28;20060;-73
2023/04/08 03:31:37;;;;;;;20.42;14.60;;;3.10;99.90;;;;;;5023571;28;20053;-73
2023/04/08 03:34:02;;;;;;;15.50;13.68;;;3.10;99.90;;;;;;5022324;28;20547;-73
2023/04/08 03:36:28;;;;;;;17.55;14.52;;;3.20;99.90;;;;;;5027992;28;20548;-73
2023/04/08 03:38:54;;;;;;;18.15;14.70;;;3.10;99.90;;;;;;5027610;28;20165;-73
2023/04/08 03:41:20;;;;;;;19.08;13.68;;;3.10;99.90;;;;;;5027347;28;20580;-73
2023/04/08 03:43:45;;;;;;;22.63;15.35;;;3.10;99.90;;;;;;5090655;28;20079;-73
2023/04/08 03:46:11;;;;;;;18.08;14.55;;;3.10;99.90;;;;;;5020840;28;20040;-72
2023/04/08 03:48:36;;;;;;;20.13;14.10;;;3.10;99.90;;;;;;5019094;28;20057;-74
2023/04/08 03:51:02;;;;;;;17.13;14.00;;;3.00;99.90;;;;;;5027095;28;20038;-73
2023/04/08 03:53:28;;;;;;;17.17;14.20;;;3.00;99.90;;;;;;5027646;28;20063;-73
2023/04/08 03:55:55;;;;;;;18.63;15.13;;;3.00;99.90;;;;;;5027497;28;20128;-73
2023/04/08 03:58:20;;;;;;;18.30;15.30;;;3.00;99.90;;;;;;5094206;28;20049;-73
2023/04/08 04:00:46;;;;;;;19.15;16.35;;;3.00;99.90;;;;;;5026449;28;20076;-73
2023/04/08 04:03:12;;;;;;;22.30;16.42;;;3.00;99.90;;;;;;5027184;28;20033;-73
2023/04/08 04:05:38;;;;;;;18.77;15.32;;;3.00;99.90;;;;;;5025449;28;20030;-73
2023/04/08 04:08:04;;;;;;;23.92;16.80;;;3.10;99.90;;;;;;5022357;28;20064;-73
2023/04/08 04:10:30;;;;;;;20.73;16.55;;;3.10;99.90;;;;;;5025585;28;20052;-73
2023/04/08 04:12:55;;;;;;;19.42;15.75;;;3.10;99.90;;;;;;5022145;28;20124;-73
2023/04/08 04:15:21;;;;;;;18.70;16.70;;;3.20;99.90;;;;;;5027568;28;20126;-73
2023/04/08 04:17:49;;;;;;;17.65;15.20;;;3.20;99.90;;;;;;5023033;28;20376;-73
2023/04/08 04:20:15;;;;;;;20.67;17.88;;;3.30;99.90;;;;;;5105716;27;20128;-73
2023/04/08 04:22:40;;;;;;;18.65;16.48;;;3.30;99.90;;;;;;5023605;27;20049;-73
2023/04/08 04:25:07;;;;;;;21.83;17.80;;;3.30;99.90;;;;;;5092423;28;20060;-73
2023/04/08 04:27:32;;;;;;;21.27;15.73;;;3.30;99.90;;;;;;5024073;27;20049;-73
2023/04/08 04:29:59;;;;;;;20.38;16.80;;;3.40;99.90;;;;;;5030217;28;20121;-73
2023/04/08 04:32:25;;;;;;;20.50;16.45;;;3.40;99.90;;;;;;5024939;27;20041;-72
2023/04/08 04:34:51;;;;;;;21.83;18.65;;;3.40;99.90;;;;;;5023071;28;20045;-73
2023/04/08 04:37:17;;;;;;;20.48;17.35;;;3.40;99.90;;;;;;5021189;28;20132;-76
2023/04/08 04:39:43;;;;;;;21.42;17.33;;;3.40;99.90;;;;;;5023825;28;20048;-74
2023/04/08 04:42:08;;;;;;;19.73;16.05;;;3.50;99.90;;;;;;5026504;28;20050;-78
2023/04/08 04:44:34;;;;;;;21.80;18.40;;;3.40;99.90;;;;;;5024228;27;20308;-74
2023/04/08 04:47:00;;;;;;;22.08;18.40;;;3.40;99.90;;;;;;5022987;28;20413;-72
2023/04/08 04:49:25;;;;;;;22.25;17.70;;;3.40;99.90;;;;;;5020936;28;20363;-72
2023/04/08 04:51:51;;;;;;;26.05;19.08;;;3.50;99.90;;;;;;5017243;28;20068;-72
2023/04/08 04:54:16;;;;;;;21.67;17.52;;;3.50;99.90;;;;;;5022101;27;20355;-74
2023/04/08 04:56:42;;;;;;;22.90;17.83;;;3.50;99.90;;;;;;5018380;27;20137;-73
2023/04/08 04:59:08;;;;;;;20.83;18.25;;;3.50;99.90;;;;;;5081719;28;21696;-73
2023/04/08 05:01:33;;;;;;;22.95;19.02;;;3.50;99.90;;;;;;5087906;28;20048;-73
2023/04/08 05:03:59;;;;;;;24.58;19.20;;;3.60;99.90;;;;;;5020411;28;20041;-73
2023/04/08 05:06:26;;;;;;;25.90;19.85;;;3.50;99.90;;;;;;5021331;27;20137;-73
2023/04/08 05:08:52;;;;;;;23.27;19.05;;;3.60;99.90;;;;;;5020701;27;20073;-74
2023/04/08 05:11:17;;;;;;;20.85;17.20;;;3.60;99.90;;;;;;5071620;28;20048;-73
2023/04/08 05:13:43;;;;;;;24.10;19.77;;;3.60;99.90;;;;;;5022432;28;20042;-73
2023/04/08 05:16:09;;;;;;;22.27;19.20;;;3.70;99.90;;;;;;5021111;28;20138;-73
2023/04/08 05:18:35;;;;;;;24.45;18.20;;;3.70;99.90;;;;;;5023101;28;20333;-73
2023/04/08 05:21:01;;;;;;;22.77;19.17;;;3.70;99.90;;;;;;5021562;28;20117;-73
2023/04/08 05:23:27;;;;;;;25.00;19.73;;;3.80;99.90;;;;;;5118744;27;20038;-73
2023/04/08 05:25:53;;;;;;;21.10;17.65;;;3.80;99.90;;;;;;5020137;28;20086;-73
2023/04/08 05:28:18;;;;;;;25.25;20.02;;;3.80;99.90;;;;;;5020837;28;20096;-73
2023/04/08 05:30:51;;;;;;;25.92;20.55;;;3.90;99.90;;;;;;5021853;27;20164;-73
2023/04/08 05:33:17;;;;;;;23.08;19.40;;;4.00;99.90;;;;;;5019740;28;20391;-73
2023/04/08 05:35:42;;;;;;;23.25;19.80;;;4.00;99.90;;;;;;5025615;28;20094;-73
2023/04/08 05:38:08;;;;;;;24.17;19.17;;;4.10;99.90;;;;;;5091557;28;20037;-73
2023/04/08 05:40:34;;;;;;;21.90;18.13;;;4.10;99.90;;;;;;5025487;28;20049;-73
2023/04/08 05:43:00;;;;;;;22.83;19.65;;;4.10;99.90;;;;;;5025253;28;20037;-73
2023/04/08 05:45:27;;;;;;;25.05;20.35;;;4.10;99.90;;;;;;5025821;28;20054;-73
2023/04/08 05:47:53;;;;;;;24.83;19.02;;;4.10;99.90;;;;;;5025725;28;20034;-73
2023/04/08 05:50:19;;;;;;;24.45;20.58;;;4.10;99.90;;;;;;5025883;28;20034;-73
2023/04/08 05:52:44;;;;;;;25.70;21.35;;;4.10;99.90;;;;;;5025597;28;20064;-74
2023/04/08 05:55:11;;;;;;;23.67;21.05;;;4.10;99.90;;;;;;5028192;28;20406;-74
2023/04/08 05:57:37;;;;;;;23.08;19.90;;;4.10;99.90;;;;;;5032530;28;20087;-74
2023/04/08 06:00:08;;;;;;;23.85;20.17;;;4.20;99.90;;;;;;5030382;28;20038;-74
2023/04/08 06:02:35;;;;;;;25.13;21.33;;;4.20;99.90;;;;;;5025430;28;20044;-74
2023/04/08 06:05:02;;;;;;;24.33;20.83;;;4.20;99.90;;;;;;5024313;28;20510;-74
2023/04/08 06:07:28;;;;;;;27.42;21.75;;;4.20;99.90;;;;;;5021851;28;20053;-74
2023/04/08 06:09:54;;;;;;;26.17;21.30;;;4.30;99.90;;;;;;5019166;28;20443;-75
2023/04/08 06:12:20;;;;;;;26.73;22.05;;;4.30;99.90;;;;;;5021209;28;20436;-74
2023/04/08 06:14:46;;;;;;;28.33;22.17;;;4.40;99.90;;;;;;5085694;28;20566;-74
2023/04/08 06:17:11;;;;;;;27.77;22.50;;;4.40;99.90;;;;;;5019316;28;20149;-74
2023/04/08 06:19:37;;;;;;;25.75;20.90;;;4.40;99.90;;;;;;5019794;28;20044;-74
2023/04/08 06:22:02;;;;;;;27.05;20.02;;;4.50;99.90;;;;;;5021698;28;20383;-74
2023/04/08 06:24:28;;;;;;;26.77;22.42;;;4.60;99.90;;;;;;5020476;28;20033;-74
2023/04/08 06:26:54;;;;;;;25.90;21.55;;;4.80;99.90;;;;;;5020968;28;20037;-74
2023/04/08 06:29:21;;;;;;;26.70;22.13;;;4.80;99.90;;;;;;5020065;28;20042;-75
2023/04/08 06:31:47;;;;;;;26.88;23.60;;;4.90;99.90;;;;;;5070175;28;20078;-74
2023/04/08 06:34:13;;;;;;;25.58;21.67;;;5.00;99.90;;;;;;5088255;27;20067;-75
2023/04/08 06:36:39;;;;;;;27.85;23.70;;;5.10;99.90;;;;;;5025630;28;20041;-74
2023/04/08 06:39:05;;;;;;;25.17;22.17;;;5.20;99.90;;;;;;5028554;28;20048;-74
2023/04/08 06:41:31;;;;;;;26.63;23.27;;;5.30;99.90;;;;;;5024827;28;20042;-74
2023/04/08 06:43:56;;;;;;;23.67;21.10;;;5.60;99.90;;;;;;5024304;28;20387;-74
2023/04/08 06:46:22;;;;;;;24.80;21.15;;;5.70;99.90;;;;;;5088184;28;20045;-74
2023/04/08 06:48:48;;;;;;;30.00;23.92;;;5.90;99.90;;;;;;5023819;28;21085;-76
2023/04/08 06:51:13;;;;;;;26.50;22.63;;;6.90;99.90;;;;;;5090415;27;20050;-75
2023/04/08 06:53:39;;;;;;;27.80;24.02;;;7.10;99.90;;;;;;5088623;27;20581;-74
2023/04/08 06:56:05;;;;;;;24.45;21.65;;;8.30;99.90;;;;;;5024820;28;20040;-74
2023/04/08 06:58:30;;;;;;;24.90;22.20;;;8.90;99.90;;;;;;5091053;27;20137;-74
2023/04/08 07:00:57;;;;;;;25.63;21.88;;;9.00;99.90;;;;;;5026888;28;20117;-75
2023/04/08 07:03:23;;;;;;;22.88;20.08;;;9.80;99.90;;;;;;5025685;28;20127;-75
2023/04/08 07:05:49;;;;;;;24.83;20.60;;;9.60;99.90;;;;;;5086165;27;20100;-76
2023/04/08 07:08:15;;;;;;;22.90;20.50;;;9.60;99.90;;;;;;5119041;27;20075;-75
2023/04/08 07:10:40;;;;;;;26.85;23.65;;;9.20;99.90;;;;;;5021735;27;20148;-74
2023/04/08 07:13:06;;;;;;;26.17;22.08;;;8.70;99.90;;;;;;5024676;27;20065;-74
2023/04/08 07:15:32;;;;;;;28.33;22.85;;;8.20;99.90;;;;;;5024905;28;20142;-79
2023/04/08 07:17:58;;;;;;;26.50;23.55;;;8.10;99.90;;;;;;5026597;27;20037;-76
2023/04/08 07:20:24;;;;;;;25.38;22.63;;;8.20;99.90;;;;;;5021177;28;20053;-76
2023/04/08 07:22:51;;;;;;;28.85;24.83;;;8.10;99.90;;;;;;5020833;27;20049;-73
2023/04/08 07:25:16;;;;;;;27.00;24.08;;;8.20;99.90;;;;;;5021307;27;20043;-74
2023/04/08 07:27:42;;;;;;;27.60;23.20;;;8.30;99.90;;;;;;5022148;27;20516;-72
2023/04/08 07:30:08;;;;;;;29.98;23.02;;;8.40;99.90;;;;;;5022098;28;20049;-75
2023/04/08 07:32:34;;;;;;;27.25;24.35;;;8.40;99.90;;;;;;5084332;27;20045;-73
2023/04/08 07:35:00;;;;;;;28.48;23.08;;;8.40;99.90;;;;;;5023504;28;20057;-76
2023/04/08 07:37:29;;;;;;;30.80;24.17;;;8.30;99.90;;;;;;5033743;27;20039;-76
2023/04/08 07:39:54;;;;;;;30.63;23.73;;;8.50;99.90;;;;;;5029018;28;20083;-74
2023/04/08 07:42:21;;;;;;;27.35;23.63;;;8.40;99.90;;;;;;5031648;28;20456;-76
2023/04/08 07:44:46;;;;;;;30.63;24.40;;;8.30;99.90;;;;;;5090626;28;20045;-75
2023/04/08 07:47:12;;;;;;;29.70;22.65;;;8.40;99.90;;;;;;5028409;28;20068;-73
2023/04/08 07:49:38;;;;;;;28.17;18.90;;;8.40;99.90;;;;;;5032571;27;20061;-74
2023/04/08 07:52:05;;;;;;;31.73;22.08;;;8.40;99.90;;;;;;5028314;27;20041;-73
2023/04/08 07:54:33;;;;;;;33.90;26.30;;;8.50;99.90;;;;;;5030430;28;20073;-73
2023/04/08 07:56:59;;;;;;;34.65;27.10;;;8.70;99.90;;;;;;5026833;28;20053;-74
2023/04/08 07:59:25;;;;;;;32.33;25.58;;;8.90;99.90;;;;;;5033282;27;20488;-75
2023/04/08 08:01:50;;;;;;;34.13;26.27;;;9.00;99.90;;;;;;5034997;27;20049;-77
2023/04/08 08:04:16;;;;;;;33.05;26.10;;;9.20;99.90;;;;;;5098916;28;20049;-79
2023/04/08 08:06:42;;;;;;;31.92;25.95;;;8.80;99.90;;;;;;5024756;27;20042;-78
2023/04/08 08:09:08;;;;;;;30.40;24.55;;;8.80;99.90;;;;;;5027827;28;20174;-80
2023/04/08 08:11:34;;;;;;;31.02;25.13;;;8.60;99.90;;;;;;5087121;28;20037;-78
2023/04/08 08:13:59;;;;;;;27.67;23.65;;;8.80;99.90;;;;;;5087751;27;20502;-77
2023/04/08 08:16:29;;;;;;;30.48;24.52;;;8.80;99.90;;;;;;5030308;27;20029;-79
2023/04/08 08:18:54;;;;;;;28.75;22.67;;;8.90;99.90;;;;;;5029604;27;20041;-77
2023/04/08 08:21:20;;;;;;;27.20;22.98;;;9.00;99.90;;;;;;5033034;28;20048;-79
2023/04/08 08:23:46;;;;;;;25.33;20.77;;;9.20;99.90;;;;;;5104453;28;21240;-78
2023/04/08 08:26:11;;;;;;;26.88;21.63;;;9.30;99.90;;;;;;5099069;28;20041;-79
2023/04/08 08:28:38;;;;;;;26.55;21.95;;;9.40;99.90;;;;;;5029838;28;20041;-78
2023/04/08 08:31:04;;;;;;;27.95;22.23;;;9.60;99.90;;;;;;5096873;28;21439;-78
2023/04/08 08:33:34;;;;;;;21.02;17.92;;;9.90;99.90;;;;;;5031580;27;20045;-78
2023/04/08 08:36:00;;;;;;;21.80;19.38;;;10.10;99.90;;;;;;5097889;28;20061;-78
2023/04/08 08:38:27;;;;;;;22.98;18.25;;;9.90;99.90;;;;;;5030895;28;20057;-79
2023/04/08 08:40:55;;;;;;;21.83;19.20;;;9.70;99.90;;;;;;5046174;28;20065;-78
2023/04/08 08:43:21;;;;;;;21.17;18.52;;;9.90;99.90;;;;;;5099177;28;20300;-79
2023/04/08 08:45:47;;;;;;;19.40;17.30;;;9.80;99.90;;;;;;5028754;28;20084;-79
2023/04/08 08:48:12;;;;;;;20.92;18.20;;;9.50;99.90;;;;;;5032656;27;20033;-79
2023/04/08 08:50:38;;;;;;;23.33;18.35;;;9.20;99.90;;;;;;5095394;27;20045;-78
2023/04/08 08:53:04;;;;;;;21.08;17.38;;;9.20;99.90;;;;;;5024530;28;20037;-78
2023/04/08 08:55:32;;;;;;;18.38;16.02;;;9.30;99.90;;;;;;5030119;28;20037;-79
2023/04/08 08:58:01;;;;;;;17.67;15.18;;;9.20;99.90;;;;;;5034803;27;20117;-79
2023/04/08 09:00:38;;;;;;;16.75;14.80;;;9.30;99.90;;;;;;5080106;28;20105;-78
2023/04/08 09:03:18;;;;;;;18.38;15.98;;;9.30;99.90;;;;;;5094995;28;20091;-78
2023/04/08 09:06:02;;;;;;;15.60;14.00;;;9.50;99.90;;;;;;5097882;28;20436;-78
2023/04/08 09:08:30;;;;;;;14.80;13.27;;;9.70;99.90;;;;;;5028830;28;20102;-78
2023/04/08 09:11:13;;;;;;;15.32;13.82;;;9.80;99.90;;;;;;5028186;27;20060;-78
2023/04/08 09:13:39;;;;;;;16.30;14.32;;;9.80;99.90;;;;;;5027508;28;20041;-78
2023/04/08 09:16:08;;;;;;;16.48;14.77;;;10.00;99.90;;;;;;5031804;28;20060;-78
2023/04/08 09:18:34;;;;;;;16.48;14.68;;;;;;;;;;5094762;28;20427;-77
2023/04/08 09:21:00;;;;;;;15.88;14.35;;;10.20;99.90;;;;;;5028007;28;20053;-78
2023/04/08 09:23:42;;;;;;;18.65;15.10;;;10.20;99.90;;;;;;5095402;28;20365;-78
2023/04/08 09:26:12;;;;;;;17.50;14.68;;;10.40;99.90;;;;;;5092047;28;20049;-77
2023/04/08 09:28:38;;;;;;;16.17;14.15;;;10.20;99.90;;;;;;5026511;28;20068;-78
2023/04/08 09:31:21;;;;;;;18.17;14.32;;;10.30;99.90;;;;;;5027862;28;20053;-78
2023/04/08 09:33:48;;;;;;;13.40;11.95;;;10.20;99.90;;;;;;5027861;28;20134;-78
2023/04/08 09:36:15;;;;;;;14.90;12.82;;;10.20;99.90;;;;;;5025693;28;20042;-78
2023/04/08 09:38:41;;;;;;;15.45;13.90;;;10.70;99.90;;;;;;5090063;27;20045;-78
2023/04/08 09:41:10;;;;;;;15.93;14.23;;;10.30;99.90;;;;;;5025687;28;20045;-78
2023/04/08 09:43:41;;;;;;;16.35;14.02;;;10.40;99.90;;;;;;5073579;28;20077;-78
2023/04/08 09:46:10;;;;;;;15.50;13.85;;;10.20;99.90;;;;;;5026502;28;20041;-78
2023/04/08 09:48:41;;;;;;;16.30;14.60;;;10.40;99.90;;;;;;5027526;28;20033;-78
2023/04/08 09:51:11;;;;;;;15.18;13.57;;;10.60;99.90;;;;;;5093229;28;20116;-79
2023/04/08 09:53:40;;;;;;;12.43;11.10;;;10.70;99.90;;;;;;5038318;28;20101;-79
2023/04/08 09:56:11;;;;;;;14.13;11.95;;;10.40;99.90;;;;;;5031626;28;20464;-79
2023/04/08 09:58:56;;;;;;;12.95;11.60;;;10.40;99.90;;;;;;5036694;28;20045;-79
2023/04/08 10:01:30;;;;;;;13.80;11.60;;;10.40;99.90;;;;;;5036785;28;20029;-78
2023/04/08 10:03:59;;;;;;;12.68;11.32;;;10.40;99.90;;;;;;5031598;28;20059;-79
2023/04/08 10:06:28;;;;;;;13.13;11.73;;;10.40;99.90;;;;;;5096390;27;20523;-79
2023/04/08 10:08:55;;;;;;;12.98;11.68;;;10.50;99.90;;;;;;5038362;28;20140;-79
2023/04/08 10:11:21;;;;;;;14.20;12.80;;;10.30;99.90;;;;;;5081738;28;20062;-79
2023/04/08 10:13:47;;;;;;;13.57;12.18;;;10.20;99.90;;;;;;5034373;28;20092;-78
2023/04/08 10:16:23;;;;;;;12.52;10.68;;;10.50;99.90;;;;;;5030420;28;20401;-78
2023/04/08 10:18:51;;;;;;;13.05;11.75;;;10.50;99.90;;;;;;5093899;28;20089;-79
2023/04/08 10:21:32;;;;;;;13.65;12.15;;;10.50;99.90;;;;;;5105398;28;20494;-78
2023/04/08 10:24:00;;;;;;;13.13;11.82;;;10.40;99.90;;;;;;5041039;28;20048;-79
2023/04/08 10:26:33;;;;;;;13.40;12.00;;;10.50;99.90;;;;;;5031257;28;20051;-78
2023/04/08 10:29:17;;;;;;;14.57;12.77;;;11.00;99.90;;;;;;5028743;28;20348;-78
2023/04/08 10:31:50;;;;;;;12.20;10.85;;;10.80;99.90;;;;;;5029199;28;20052;-78
2023/04/08 10:34:25;;;;;;;13.98;12.63;;;11.10;99.90;;;;;;5030544;28;20041;-78
2023/04/08 10:36:52;;;;;;;14.23;12.75;;;11.20;99.90;;;;;;5093486;28;20046;-78
2023/04/08 10:39:18;;;;;;;13.77;12.40;;;11.10;99.90;;;;;;5081932;28;20041;-78
2023/04/08 10:41:48;;;;;;;13.80;12.50;;;11.10;99.90;;;;;;5079788;28;20070;-78
2023/04/08 10:44:21;;;;;;;12.80;11.50;;;11.40;99.90;;;;;;5028656;28;20076;-78
2023/04/08 10:46:49;;;;;;;13.75;12.32;;;11.50;99.90;;;;;;5029495;28;20045;-78
2023/04/08 10:49:16;;;;;;;13.93;12.52;;;11.50;99.90;;;;;;5088629;28;20168;-78
2023/04/08 10:51:43;;;;;;;14.47;12.97;;;11.50;99.90;;;;;;5074612;28;20098;-76
2023/04/08 10:54:16;;;;;;;13.32;12.02;;;11.30;99.90;;;;;;5093229;28;20036;-78
2023/04/08 10:56:47;;;;;;;14.80;9.65;;;11.40;99.90;;;;;;5021773;28;20476;-78
2023/04/08 10:59:15;;;;;;;13.32;12.02;;;11.60;99.90;;;;;;5024226;28;20041;-78
2023/04/08 11:01:43;;;;;;;15.88;14.27;;;11.20;99.90;;;;;;5023458;28;20136;-78
2023/04/08 11:04:12;;;;;;;;;;;11.00;99.90;;;;;;5025053;28;20072;-77
2023/04/08 11:06:38;;;;;;;14.80;13.23;;;11.10;99.90;;;;;;5117799;27;19932;-77
2023/04/08 11:09:04;;;;;;;17.63;15.85;;;10.80;99.90;;;;;;5028417;28;20049;-77
2023/04/08 11:11:30;;;;;;;15.80;14.18;;;10.80;99.90;;;;;;5025811;28;20038;-77
2023/04/08 11:13:56;;;;;;;16.48;14.93;;;10.70;99.90;;;;;;5028348;28;20371;-77
2023/04/08 11:16:22;;;;;;;13.98;12.43;;;10.50;99.90;;;;;;5091776;28;20050;-78
2023/04/08 11:18:49;;;;;;;16.40;14.68;;;10.30;99.90;;;;;;5028878;27;20420;-78
2023/04/08 11:21:16;;;;;;;18.23;16.33;;;10.20;99.90;;;;;;5030799;28;20052;-78
2023/04/08 11:23:41;;;;;;;18.20;16.13;;;10.30;99.90;;;;;;5094606;28;20510;-77
2023/04/08 11:26:07;;;;;;;18.45;16.73;;;10.10;99.90;;;;;;5028639;28;20045;-78
2023/04/08 11:28:34;;;;;;;17.73;15.82;;;10.10;99.90;;;;;;5029359;27;20049;-77
2023/04/08 11:31:02;;;;;;;18.33;16.23;;;10.40;99.90;;;;;;5029484;27;20430;-77
2023/04/08 11:33:30;;;;;;;17.67;15.88;;;10.60;99.90;;;;;;5090885;27;20483;-77
2023/04/08 11:35:56;;;;;;;18.27;16.45;;;10.70;99.90;;;;;;5024376;27;20090;-78
2023/04/08 11:38:23;;;;;;;17.75;15.88;;;10.90;99.90;;;;;;5077310;28;20042;-78
2023/04/08 11:40:57;;;;;;;16.38;14.68;;;11.00;99.90;;;;;;5028239;28;20491;-78
2023/04/08 11:43:23;;;;;;;17.38;15.57;;;10.90;99.90;;;;;;5027029;28;20064;-78
2023/04/08 11:45:49;;;;;;;17.60;15.80;;;11.30;99.90;;;;;;5026868;27;20059;-78
2023/04/08 11:48:16;;;;;;;18.48;16.77;;;11.40;99.90;;;;;;5028229;28;20040;-78
2023/04/08 11:50:43;;;;;;;17.67;15.90;;;11.60;99.90;;;;;;5030593;27;20052;-78
2023/04/08 11:53:28;;;;;;;16.67;14.95;;;11.90;99.90;;;;;;5073115;27;20034;-77
2023/04/08 11:55:54;;;;;;;15.35;13.75;;;12.00;99.90;;;;;;5107047;27;20466;-78
2023/04/08 11:58:20;;;;;;;12.32;11.02;;;12.10;99.90;;;;;;5028915;28;20199;-77
2023/04/08 12:00:46;;;;;;;13.95;12.55;;;11.80;99.90;;;;;;5032126;28;20386;-78
2023/04/08 12:03:12;;;;;;;14.32;11.85;;;11.80;99.90;;;;;;5040759;28;20433;-78
2023/04/08 12:05:38;;;;;;;13.68;12.27;;;11.70;99.90;;;;;;5028088;27;20056;-78
2023/04/08 12:08:04;;;;;;;14.50;13.00;;;11.70;99.90;;;;;;5021705;28;20061;-79
2023/04/08 12:10:30;;;;;;;15.20;13.68;;;11.50;99.90;;;;;;5022045;28;20065;-79
2023/04/08 12:12:55;;;;;;;14.35;12.63;;;11.40;99.90;;;;;;5035545;28;20043;-78
2023/04/08 12:15:21;;;;;;;14.45;12.43;;;11.50;99.90;;;;;;5031466;28;20056;-77
2023/04/08 12:17:47;;;;;;;14.43;12.93;;;11.40;99.90;;;;;;5028702;28;20399;-79
2023/04/08 12:20:12;;;;;;;14.00;11.20;;;11.40;99.90;;;;;;5039670;27;20091;-80
2023/04/08 12:22:38;;;;;;;14.18;12.57;;;11.30;99.90;;;;;;5023538;28;20078;-78
2023/04/08 12:25:05;;;;;;;15.93;13.88;;;11.10;99.90;;;;;;5032592;27;20042;-81
2023/04/08 12:27:34;;;;;;;14.43;13.05;;;10.80;99.90;;;;;;5028939;28;20086;-79
2023/04/08 12:30:01;;;;;;;11.63;9.60;;;10.90;99.90;;;;;;5044376;27;20080;-80
2023/04/08 12:32:27;;;;;;;15.70;14.10;;;10.60;99.90;;;;;;5034298;27;20099;-81
2023/04/08 12:34:53;;;;;;;16.55;14.95;;;10.80;99.90;;;;;;5068052;27;20130;-80
2023/04/08 12:37:21;;;;;;;16.70;14.95;;;11.00;99.90;;;;;;5019021;28;20112;-80
2023/04/08 12:39:47;;;;;;;17.13;14.02;;;11.10;99.90;;;;;;5035984;27;20068;-80